Time;durP1;ratioP1;P1;durP2;ratioP2;P2;SDS_P1;SDS_P2;PMS_P1;PMS_P2;Temp;Humidity;BMP_temperature;BMP_pressure;BME280_temperature;BME280_humidity;BME280_pressure;Samples;Min_cycle;Max_cycle;Signal;HPM_P1;HPM_P2
2021/05/01 00:01:19;;;;;;;19.93;15.73;;;;;;;;;;5034140;28;20049;-60
2021/05/01 00:03:46;;;;;;;18.60;12.80;;;;;;;;;;5034054;28;20022;-60
2021/05/01 00:06:13;;;;;;;14.43;11.30;;;;;;;;;;5034418;28;20045;-60
2021/05/01 00:08:40;;;;;;;15.13;10.87;;;;;;;;;;5034072;28;20465;-61
2021/05/01 00:11:07;;;;;;;14.43;9.60;;;;;;;;;;5033840;28;20108;-61
2021/05/01 00:13:34;;;;;;;11.43;7.97;;;;;;;;;;5034011;28;20170;-61
2021/05/01 00:16:01;;;;;;;9.83;7.63;;;;;;;;;;5033992;28;20028;-60
2021/05/01 00:18:28;;;;;;;10.40;7.37;;;;;;;;;;5033788;28;20448;-60
2021/05/01 00:20:55;;;;;;;13.50;7.70;;;;;;;;;;5033738;28;20025;-60
2021/05/01 00:23:22;;;;;;;12.70;8.10;;;;;;;;;;5033829;28;20125;-59
2021/05/01 00:25:49;;;;;;;11.43;7.67;;;;;;;;;;5033480;28;20372;-60
2021/05/01 00:28:16;;;;;;;14.03;7.27;;;;;;;;;;5033530;28;20076;-59
2021/05/01 00:30:43;;;;;;;10.87;7.00;;;;;;;;;;5033424;28;20040;-59
2021/05/01 00:33:10;;;;;;;10.57;7.50;;;;;;;;;;5033319;28;20417;-61
2021/05/01 00:35:37;;;;;;;13.10;7.67;;;;;;;;;;5033437;28;20350;-60
2021/05/01 00:38:04;;;;;;;16.70;8.47;;;;;;;;;;5033407;28;20506;-59
2021/05/01 00:40:31;;;;;;;17.80;10.33;;;;;;;;;;5032794;28;20068;-58
2021/05/01 00:43:11;;;;;;;16.70;10.57;;;;;;;;;;5034622;28;20053;-60
2021/05/01 00:45:37;;;;;;;15.10;10.03;;;;;;;;;;5033255;28;20029;-60
2021/05/01 00:48:04;;;;;;;10.93;8.40;;;;;;;;;;5033301;28;20035;-58
2021/05/01 00:50:31;;;;;;;13.43;8.67;;;;;;;;;;5033134;28;20036;-60
2021/05/01 00:52:58;;;;;;;16.13;9.13;;;;;;;;;;5033092;28;20036;-59
2021/05/01 00:55:25;;;;;;;13.47;8.43;;;;;;;;;;5033148;28;20013;-59
2021/05/01 00:57:52;;;;;;;17.90;8.50;;;;;;;;;;5032977;28;20029;-58
2021/05/01 01:03:01;;;;;;;13.23;7.50;;;;;;;;;;5033114;28;20056;-60
2021/05/01 01:05:27;;;;;;;11.40;8.17;;;;;;;;;;5033014;28;20383;-58
2021/05/01 01:07:54;;;;;;;14.23;7.23;;;;;;;;;;5033006;28;20033;-59
2021/05/01 01:10:21;;;;;;;11.03;7.67;;;;;;;;;;5032966;28;20040;-59
2021/05/01 01:12:48;;;;;;;13.67;7.53;;;;;;;;;;5033143;28;20025;-59
2021/05/01 01:15:27;;;;;;;11.37;7.37;;;;;;;;;;5032986;28;20104;-60
2021/05/01 01:17:54;;;;;;;11.20;7.00;;;;;;;;;;5032822;28;20438;-60
2021/05/01 01:20:21;;;;;;;15.60;8.10;;;;;;;;;;5032946;28;20361;-59
2021/05/01 01:22:48;;;;;;;14.10;8.13;;;;;;;;;;5032445;28;20535;-60
2021/05/01 01:25:15;;;;;;;13.57;9.30;;;;;;;;;;5032631;28;20104;-59
2021/05/01 01:27:46;;;;;;;10.70;7.43;;;;;;;;;;5032957;28;20026;-58
2021/05/01 01:30:14;;;;;;;13.97;8.23;;;;;;;;;;5032543;28;20535;-60
2021/05/01 01:32:41;;;;;;;13.20;8.37;;;;;;;;;;5032746;28;20030;-59
2021/05/01 01:35:08;;;;;;;11.40;7.20;;;;;;;;;;5032698;28;20105;-59
2021/05/01 01:37:36;;;;;;;12.97;8.13;;;;;;;;;;5032668;28;20022;-58
2021/05/01 01:40:03;;;;;;;13.00;8.27;;;;;;;;;;5032492;28;20034;-60
2021/05/01 01:42:30;;;;;;;17.30;9.07;;;;;;;;;;5033935;28;20049;-59
2021/05/01 01:44:57;;;;;;;14.13;9.37;;;;;;;;;;5032619;28;20415;-58
2021/05/01 01:47:24;;;;;;;15.57;9.83;;;;;;;;;;5032501;28;20033;-58
2021/05/01 01:49:51;;;;;;;18.47;12.23;;;;;;;;;;5032612;28;20022;-59
2021/05/01 01:52:17;;;;;;;22.67;16.67;;;;;;;;;;5033416;28;20033;-58
2021/05/01 01:54:44;;;;;;;25.07;16.47;;;;;;;;;;5036602;28;20084;-59
2021/05/01 01:57:11;;;;;;;20.60;16.77;;;;;;;;;;5036535;28;20025;-59
2021/05/01 01:59:38;;;;;;;17.97;14.43;;;;;;;;;;5036410;28;20032;-59
2021/05/01 02:02:07;;;;;;;19.83;15.70;;;;;;;;;;5036343;28;20119;-58
2021/05/01 02:04:39;;;;;;;23.30;17.63;;;;;;;;;;5036423;28;20357;-58
2021/05/01 02:07:06;;;;;;;23.63;16.20;;;;;;;;;;5036207;28;20026;-59
2021/05/01 02:09:40;;;;;;;18.57;15.60;;;;;;;;;;5036331;28;20030;-59
2021/05/01 02:12:08;;;;;;;17.03;14.50;;;;;;;;;;5036221;28;20052;-58
2021/05/01 02:14:38;;;;;;;21.53;15.77;;;;;;;;;;5036072;28;20251;-58
2021/05/01 02:17:14;;;;;;;26.30;18.33;;;;;;;;;;5035906;28;20108;-59
2021/05/01 02:19:49;;;;;;;18.97;15.90;;;;;;;;;;5035682;28;20053;-59
2021/05/01 02:22:23;;;;;;;20.98;14.38;;;;;;;;;;5036106;28;20021;-58
2021/05/01 02:24:54;;;;;;;19.25;14.63;;;;;;;;;;5035722;28;20033;-59
2021/05/01 02:27:28;;;;;;;19.60;14.70;;;;;;;;;;5036342;28;20084;-60
2021/05/01 02:30:03;;;;;;;18.50;14.07;;;;;;;;;;5036227;28;20033;-59
2021/05/01 02:32:33;;;;;;;18.63;13.75;;;;;;;;;;5035477;28;20041;-59
2021/05/01 02:35:07;;;;;;;19.03;15.30;;;;;;;;;;5035883;28;20017;-59
2021/05/01 02:37:41;;;;;;;26.38;15.77;;;;;;;;;;5035885;28;20052;-59
2021/05/01 02:40:16;;;;;;;19.60;16.13;;;;;;;;;;5035338;28;20026;-59
2021/05/01 02:42:47;;;;;;;18.40;13.50;;;;;;;;;;5036855;28;20050;-59
2021/05/01 02:45:19;;;;;;;16.27;13.33;;;;;;;;;;5033742;28;20034;-57
2021/05/01 02:47:51;;;;;;;19.70;12.40;;;;;;;;;;5035563;28;20530;-59
2021/05/01 02:50:25;;;;;;;27.40;12.27;;;;;;;;;;5034186;28;20372;-59
2021/05/01 02:52:59;;;;;;;18.60;13.27;;;;;;;;;;5035102;28;20033;-59
2021/05/01 02:55:33;;;;;;;24.88;14.05;;;;;;;;;;5035085;28;20030;-59
2021/05/01 02:58:13;;;;;;;15.75;12.27;;;;;;;;;;5035776;28;20025;-59
2021/05/01 03:00:50;;;;;;;18.73;13.00;;;;;;;;;;5035455;28;20026;-59
2021/05/01 03:03:24;;;;;;;22.30;12.60;;;;;;;;;;5032908;28;20107;-59
2021/05/01 03:05:58;;;;;;;15.85;13.15;;;;;;;;;;5033020;28;20080;-59
2021/05/01 03:08:29;;;;;;;23.38;14.40;;;;;;;;;;5034537;28;20029;-59
2021/05/01 03:11:03;;;;;;;18.90;13.60;;;;;;;;;;5035015;28;20033;-59
2021/05/01 03:13:44;;;;;;;;;;;;;;;;;;;;;
2021/05/01 03:16:21;;;;;;;23.00;15.07;;;;;;;;;;4998172;28;20255;-59
2021/05/01 03:18:53;;;;;;;20.50;14.70;;;;;;;;;;5034968;28;20017;-59
2021/05/01 03:21:29;;;;;;;19.60;15.50;;;;;;;;;;5034876;28;20104;-59
2021/05/01 03:24:04;;;;;;;30.17;15.07;;;;;;;;;;5034964;28;20105;-59
2021/05/01 03:26:37;;;;;;;17.58;14.40;;;;;;;;;;5034972;28;20030;-59
2021/05/01 03:29:11;;;;;;;19.57;12.63;;;;;;;;;;5034845;28;20385;-59
2021/05/01 03:31:45;;;;;;;20.30;13.20;;;;;;;;;;5034287;28;20440;-59
2021/05/01 03:34:21;;;;;;;19.08;13.95;;;;;;;;;;5034378;28;20033;-58
2021/05/01 03:36:49;;;;;;;21.53;15.87;;;;;;;;;;5034102;28;20507;-58
2021/05/01 03:39:17;;;;;;;21.07;15.00;;;;;;;;;;5034634;28;20033;-58
2021/05/01 03:41:51;;;;;;;15.43;12.40;;;;;;;;;;5034824;28;20033;-58
2021/05/01 03:44:21;;;;;;;14.57;11.33;;;;;;;;;;5034571;28;20025;-58
2021/05/01 03:46:49;;;;;;;20.53;15.33;;;;;;;;;;5034222;28;20037;-58
2021/05/01 03:49:18;;;;;;;22.20;15.87;;;;;;;;;;5034328;28;20025;-59
2021/05/01 03:51:49;;;;;;;19.50;14.20;;;;;;;;;;5034093;28;20046;-59
2021/05/01 03:54:23;;;;;;;17.93;13.00;;;;;;;;;;5034371;28;20472;-59
2021/05/01 03:56:51;;;;;;;18.47;14.73;;;;;;;;;;5034394;28;20061;-59
2021/05/01 03:59:19;;;;;;;19.13;14.93;;;;;;;;;;5034165;28;20547;-59
2021/05/01 04:01:54;;;;;;;17.50;13.73;;;;;;;;;;5033964;28;20480;-59
2021/05/01 04:04:23;;;;;;;;;;;;;;;;;;5034521;28;20022;-58
2021/05/01 04:06:51;;;;;;;16.63;12.27;;;;;;;;;;5033802;28;19905;-60
2021/05/01 04:09:19;;;;;;;20.87;14.70;;;;;;;;;;5033951;28;20022;-59
2021/05/01 04:11:49;;;;;;;19.17;14.77;;;;;;;;;;5032992;28;20052;-59
2021/05/01 04:14:20;;;;;;;15.60;13.07;;;;;;;;;;5033267;28;20026;-58
2021/05/01 04:16:53;;;;;;;17.13;13.57;;;;;;;;;;5033430;28;20057;-58
2021/05/01 04:19:24;;;;;;;19.27;15.17;;;;;;;;;;5033449;28;20032;-60
2021/05/01 04:22:04;;;;;;;20.57;13.77;;;;;;;;;;5015985;28;20033;-59
2021/05/01 04:24:35;;;;;;;22.00;15.27;;;;;;;;;;5033823;28;20071;-59
2021/05/01 04:27:06;;;;;;;19.50;15.57;;;;;;;;;;5033789;28;20061;-58
2021/05/01 04:29:45;;;;;;;27.77;19.70;;;;;;;;;;5033245;28;20387;-60
2021/05/01 04:32:16;;;;;;;26.73;20.97;;;;;;;;;;5033571;28;20033;-60
2021/05/01 04:34:53;;;;;;;26.13;20.57;;;;;;;;;;5033673;28;20144;-60
2021/05/01 04:37:34;;;;;;;23.87;17.10;;;;;;;;;;5033542;28;20104;-60
2021/05/01 04:40:11;;;;;;;23.63;17.70;;;;;;;;;;5033519;28;20018;-60
2021/05/01 04:43:01;;;;;;;22.63;16.70;;;;;;;;;;5035476;28;20073;-60
2021/05/01 04:45:46;;;;;;;27.03;16.27;;;;;;;;;;5030800;28;20045;-60
2021/05/01 04:48:17;;;;;;;22.13;17.13;;;;;;;;;;5033460;28;20037;-59
2021/05/01 04:50:52;;;;;;;19.20;14.33;;;;;;;;;;5033245;28;20034;-59
2021/05/01 04:53:22;;;;;;;16.35;13.63;;;;;;;;;;5033216;28;20357;-59
2021/05/01 04:55:53;;;;;;;21.27;15.53;;;;;;;;;;5033325;28;20099;-59
2021/05/01 04:58:19;;;;;;;23.23;15.23;;;;;;;;;;5032865;28;20425;-59
2021/05/01 05:00:46;;;;;;;24.43;16.40;;;;;;;;;;5033098;28;20018;-59
2021/05/01 05:03:20;;;;;;;19.33;14.93;;;;;;;;;;5032555;28;20088;-59
2021/05/01 05:05:56;;;;;;;20.67;16.33;;;;;;;;;;5033193;28;20022;-59
2021/05/01 05:08:27;;;;;;;21.07;15.00;;;;;;;;;;5033219;28;20025;-59
2021/05/01 05:10:59;;;;;;;22.80;14.57;;;;;;;;;;5032510;28;20037;-59
2021/05/01 05:13:28;;;;;;;18.20;13.90;;;;;;;;;;5031134;28;20069;-59
2021/05/01 05:15:59;;;;;;;20.17;14.40;;;;;;;;;;5033104;28;20079;-59
2021/05/01 05:18:33;;;;;;;18.97;13.77;;;;;;;;;;5032967;28;20027;-59
2021/05/01 05:21:04;;;;;;;21.27;16.13;;;;;;;;;;5032904;28;20384;-59
2021/05/01 05:23:37;;;;;;;26.10;18.13;;;;;;;;;;5032854;28;20021;-59
2021/05/01 05:26:25;;;;;;;25.57;17.30;;;;;;;;;;5032738;28;20380;-59
2021/05/01 05:29:02;;;;;;;26.07;16.77;;;;;;;;;;5032874;28;20096;-59
2021/05/01 05:31:39;;;;;;;25.23;16.60;;;;;;;;;;5032750;28;20037;-59
2021/05/01 05:34:09;;;;;;;21.23;15.23;;;;;;;;;;5032488;28;20026;-59
2021/05/01 05:36:43;;;;;;;23.67;14.57;;;;;;;;;;5032446;28;20400;-59
2021/05/01 05:39:13;;;;;;;18.00;12.93;;;;;;;;;;5032399;28;20484;-59
2021/05/01 05:41:53;;;;;;;18.97;12.77;;;;;;;;;;5032747;28;20029;-59
2021/05/01 05:44:26;;;;;;;17.33;12.67;;;;;;;;;;5033955;28;20529;-59
2021/05/01 05:47:00;;;;;;;20.73;12.63;;;;;;;;;;5032639;28;20544;-59
2021/05/01 05:49:36;;;;;;;20.43;13.37;;;;;;;;;;5032700;28;20119;-59
2021/05/01 05:52:08;;;;;;;21.03;14.73;;;;;;;;;;5032434;28;20312;-59
2021/05/01 05:54:39;;;;;;;21.13;15.13;;;;;;;;;;5030734;28;20041;-59
2021/05/01 05:57:18;;;;;;;18.40;13.20;;;;;;;;;;5032475;28;20431;-59
2021/05/01 05:59:48;;;;;;;18.73;13.77;;;;;;;;;;5013944;28;20477;-59
2021/05/01 06:02:21;;;;;;;20.17;14.87;;;;;;;;;;5032428;28;20117;-59
2021/05/01 06:05:19;;;;;;;20.20;14.33;;;;;;;;;;5032496;28;20026;-59
2021/05/01 06:07:57;;;;;;;22.90;14.17;;;;;;;;;;5030674;28;20300;-59
2021/05/01 06:10:28;;;;;;;19.73;15.10;;;;;;;;;;5031924;28;20539;-59
2021/05/01 06:12:56;;;;;;;17.23;12.47;;;;;;;;;;5031930;28;20037;-59
2021/05/01 06:15:23;;;;;;;20.83;14.87;;;;;;;;;;5032480;28;20026;-59
2021/05/01 06:17:52;;;;;;;29.77;15.80;;;;;;;;;;5032401;28;20036;-59
2021/05/01 06:20:19;;;;;;;24.03;16.20;;;;;;;;;;5032186;28;20376;-59
2021/05/01 06:22:49;;;;;;;23.37;15.47;;;;;;;;;;5032396;28;20026;-59
2021/05/01 06:25:15;;;;;;;22.37;16.63;;;;;;;;;;5032373;28;20026;-59
2021/05/01 06:27:42;;;;;;;20.77;14.87;;;;;;;;;;5032334;28;20053;-59
2021/05/01 06:30:10;;;;;;;24.73;16.10;;;;;;;;;;5032063;28;20136;-59
2021/05/01 06:32:37;;;;;;;26.00;17.83;;;;;;;;;;5032080;28;20392;-59
2021/05/01 06:35:05;;;;;;;24.93;17.93;;;;;;;;;;5032261;28;20030;-59
2021/05/01 06:37:31;;;;;;;27.90;18.37;;;;;;;;;;5032125;28;20046;-59
2021/05/01 06:40:06;;;;;;;24.83;18.93;;;;;;;;;;5035753;28;20021;-59
2021/05/01 06:42:33;;;;;;;;;;;;;;;;;;5037481;28;20116;-59
2021/05/01 06:45:08;;;;;;;21.60;16.10;;;;;;;;;;5036607;28;19917;-59
2021/05/01 06:47:37;;;;;;;20.40;15.30;;;;;;;;;;5035573;28;20045;-59
2021/05/01 06:50:08;;;;;;;22.10;15.50;;;;;;;;;;5035509;28;20026;-59
2021/05/01 06:52:43;;;;;;;18.53;13.53;;;;;;;;;;5035617;28;20052;-59
2021/05/01 06:55:10;;;;;;;16.73;11.60;;;;;;;;;;5035524;28;20025;-59
2021/05/01 06:57:37;;;;;;;19.40;11.53;;;;;;;;;;5035336;28;20049;-59
2021/05/01 07:00:08;;;;;;;15.07;11.10;;;;;;;;;;5035449;28;20029;-59
2021/05/01 07:02:40;;;;;;;16.83;11.57;;;;;;;;;;5035626;28;20022;-59
2021/05/01 07:05:09;;;;;;;16.47;11.30;;;;;;;;;;5035122;28;20101;-59
2021/05/01 07:07:35;;;;;;;16.73;10.40;;;;;;;;;;5035217;28;20460;-59
2021/05/01 07:10:06;;;;;;;14.40;9.77;;;;;;;;;;5034979;28;20037;-59
2021/05/01 07:12:33;;;;;;;15.37;11.57;;;;;;;;;;5035143;28;20091;-59
2021/05/01 07:15:04;;;;;;;20.47;11.97;;;;;;;;;;5035202;28;20029;-59
2021/05/01 07:17:31;;;;;;;15.93;11.50;;;;;;;;;;5035081;28;20060;-59
2021/05/01 07:20:00;;;;;;;20.20;12.33;;;;;;;;;;5035103;28;20036;-60
2021/05/01 07:22:27;;;;;;;23.77;11.80;;;;;;;;;;5034937;28;20037;-59
2021/05/01 07:24:54;;;;;;;19.23;12.23;;;;;;;;;;5034974;28;20036;-60
2021/05/01 07:27:27;;;;;;;20.37;12.90;;;;;;;;;;5035008;28;20033;-59
2021/05/01 07:29:57;;;;;;;25.87;14.43;;;;;;;;;;5034918;28;20379;-60
2021/05/01 07:32:23;;;;;;;19.43;13.27;;;;;;;;;;5034681;28;20036;-60
2021/05/01 07:34:52;;;;;;;16.47;11.23;;;;;;;;;;5034899;28;20105;-59
2021/05/01 07:37:20;;;;;;;17.73;11.23;;;;;;;;;;5034730;28;20112;-59
2021/05/01 07:39:52;;;;;;;17.47;11.80;;;;;;;;;;5034571;28;20057;-59
2021/05/01 07:42:20;;;;;;;15.23;11.67;;;;;;;;;;5034496;28;20029;-59
2021/05/01 07:44:47;;;;;;;18.50;11.97;;;;;;;;;;5034890;28;20581;-58
2021/05/01 07:47:16;;;;;;;14.53;11.20;;;;;;;;;;5034540;28;20060;-60
2021/05/01 07:49:43;;;;;;;17.97;12.87;;;;;;;;;;5034530;28;20109;-60
2021/05/01 07:52:10;;;;;;;20.03;12.47;;;;;;;;;;5034258;28;20038;-59
2021/05/01 07:54:42;;;;;;;17.93;13.40;;;;;;;;;;5034268;28;20384;-59
2021/05/01 07:57:09;;;;;;;20.73;13.40;;;;;;;;;;5027313;28;20033;-59
2021/05/01 07:59:36;;;;;;;19.10;12.77;;;;;;;;;;5034217;28;20029;-59
2021/05/01 08:02:03;;;;;;;21.67;12.83;;;;;;;;;;5034060;28;20109;-59
2021/05/01 08:04:30;;;;;;;17.10;12.83;;;;;;;;;;5034169;28;20550;-60
2021/05/01 08:06:57;;;;;;;16.93;12.87;;;;;;;;;;5034193;28;20030;-59
2021/05/01 08:09:23;;;;;;;20.27;14.57;;;;;;;;;;5034075;28;20472;-59
2021/05/01 08:11:50;;;;;;;23.60;16.27;;;;;;;;;;5033886;28;20041;-59
2021/05/01 08:14:17;;;;;;;27.33;18.50;;;;;;;;;;5033939;28;20056;-59
2021/05/01 08:16:43;;;;;;;30.77;20.37;;;;;;;;;;5033980;28;20472;-59
2021/05/01 08:19:10;;;;;;;35.03;20.60;;;;;;;;;;5033813;28;20041;-59
2021/05/01 08:21:37;;;;;;;58.57;33.93;;;;;;;;;;5033862;28;20105;-59
2021/05/01 08:24:04;;;;;;;74.40;42.50;;;;;;;;;;5033952;28;20072;-59
2021/05/01 08:26:31;;;;;;;75.50;43.53;;;;;;;;;;5033835;28;20045;-59
2021/05/01 08:28:59;;;;;;;56.23;35.53;;;;;;;;;;5033688;28;20026;-59
2021/05/01 08:31:26;;;;;;;56.07;33.80;;;;;;;;;;5033517;28;20044;-59
2021/05/01 08:33:53;;;;;;;81.37;33.93;;;;;;;;;;5033648;28;20018;-59
2021/05/01 08:36:19;;;;;;;42.70;27.60;;;;;;;;;;5033956;28;20053;-59
2021/05/01 08:38:46;;;;;;;39.77;24.50;;;;;;;;;;5033682;28;20035;-59
2021/05/01 08:41:13;;;;;;;39.27;20.93;;;;;;;;;;5033350;28;20031;-59
2021/05/01 08:43:39;;;;;;;31.93;21.57;;;;;;;;;;5033671;28;20408;-59
2021/05/01 08:46:12;;;;;;;48.10;24.70;;;;;;;;;;5033543;28;20025;-59
2021/05/01 08:48:43;;;;;;;32.10;22.00;;;;;;;;;;5033312;28;20472;-59
2021/05/01 08:51:09;;;;;;;36.80;23.70;;;;;;;;;;5033313;28;20037;-59
2021/05/01 08:53:36;;;;;;;47.37;25.83;;;;;;;;;;5033201;28;20030;-59
2021/05/01 08:56:03;;;;;;;37.93;22.23;;;;;;;;;;5025246;28;20025;-59
2021/05/01 08:58:30;;;;;;;38.93;25.23;;;;;;;;;;5033249;28;20026;-59
2021/05/01 09:00:57;;;;;;;38.23;25.60;;;;;;;;;;5032794;28;20084;-59
2021/05/01 09:03:24;;;;;;;43.10;24.73;;;;;;;;;;5033055;28;20017;-59
2021/05/01 09:05:52;;;;;;;41.53;27.63;;;;;;;;;;5033189;28;20017;-59
2021/05/01 09:08:20;;;;;;;36.53;24.80;;;;;;;;;;5032964;28;20473;-59
2021/05/01 09:10:49;;;;;;;36.00;24.77;;;;;;;;;;5032921;28;20030;-59
2021/05/01 09:13:26;;;;;;;37.07;25.50;;;;;;;;;;5033159;28;20025;-59
2021/05/01 09:16:06;;;;;;;35.53;24.53;;;;;;;;;;5033169;28;20104;-59
2021/05/01 09:18:51;;;;;;;30.53;21.53;;;;;;;;;;5033015;28;20033;-59
2021/05/01 09:21:18;;;;;;;28.13;19.10;;;;;;;;;;5032926;28;20029;-59
2021/05/01 09:23:46;;;;;;;27.90;20.30;;;;;;;;;;5032839;28;20388;-59
2021/05/01 09:26:13;;;;;;;29.97;19.03;;;;;;;;;;5032924;28;20072;-59
2021/05/01 09:28:46;;;;;;;26.10;17.50;;;;;;;;;;5033014;28;20131;-59
2021/05/01 09:31:14;;;;;;;32.60;21.93;;;;;;;;;;5032708;28;20037;-59
2021/05/01 09:33:41;;;;;;;33.70;21.67;;;;;;;;;;5032749;28;20025;-59
2021/05/01 09:36:15;;;;;;;28.53;20.07;;;;;;;;;;5032883;28;20025;-59
2021/05/01 09:38:46;;;;;;;31.00;20.30;;;;;;;;;;5032780;28;20468;-59
2021/05/01 09:41:16;;;;;;;30.20;20.13;;;;;;;;;;5032592;28;20029;-59
2021/05/01 09:44:04;;;;;;;29.80;18.40;;;;;;;;;;5032837;28;20057;-59
2021/05/01 09:46:32;;;;;;;21.93;15.87;;;;;;;;;;5033002;28;20101;-59
2021/05/01 09:49:22;;;;;;;21.83;15.37;;;;;;;;;;5032719;28;20034;-59
2021/05/01 09:51:51;;;;;;;23.50;13.83;;;;;;;;;;5020085;28;20042;-59
2021/05/01 09:54:19;;;;;;;31.57;14.37;;;;;;;;;;5032396;28;20451;-59
2021/05/01 09:56:47;;;;;;;18.20;13.80;;;;;;;;;;5032518;28;20419;-59
2021/05/01 09:59:14;;;;;;;35.60;14.63;;;;;;;;;;5032789;28;20025;-59
2021/05/01 10:01:41;;;;;;;21.67;13.50;;;;;;;;;;5032375;28;20033;-60
2021/05/01 10:04:15;;;;;;;17.67;13.30;;;;;;;;;;5032458;28;20109;-59
2021/05/01 10:06:44;;;;;;;23.42;14.10;;;;;;;;;;5032487;28;20061;-60
2021/05/01 10:09:11;;;;;;;20.70;13.10;;;;;;;;;;5032552;28;20025;-59
2021/05/01 10:11:38;;;;;;;14.73;10.90;;;;;;;;;;5032356;28;20059;-59
2021/05/01 10:14:07;;;;;;;15.10;12.00;;;;;;;;;;5034806;28;20084;-59
2021/05/01 10:16:35;;;;;;;15.43;11.87;;;;;;;;;;5036159;28;20453;-58
2021/05/01 10:19:06;;;;;;;25.70;13.97;;;;;;;;;;5036378;28;20415;-59
2021/05/01 10:21:34;;;;;;;18.83;13.13;;;;;;;;;;5036091;28;20030;-60
2021/05/01 10:24:01;;;;;;;18.57;13.00;;;;;;;;;;5036246;28;20103;-60
2021/05/01 10:26:40;;;;;;;18.63;12.10;;;;;;;;;;5036005;28;20104;-59
2021/05/01 10:29:07;;;;;;;18.87;12.33;;;;;;;;;;5036157;28;20029;-60
2021/05/01 10:31:53;;;;;;;20.83;13.93;;;;;;;;;;5035840;28;20160;-59
2021/05/01 10:34:21;;;;;;;20.67;13.90;;;;;;;;;;5035974;28;20441;-60
2021/05/01 10:36:49;;;;;;;20.20;13.10;;;;;;;;;;5035944;28;20061;-60
2021/05/01 10:39:17;;;;;;;18.80;12.67;;;;;;;;;;5035828;28;20045;-59
2021/05/01 10:41:54;;;;;;;17.57;12.83;;;;;;;;;;5035554;28;20107;-59
2021/05/01 10:44:20;;;;;;;19.43;14.30;;;;;;;;;;5037006;28;20053;-58
2021/05/01 10:46:47;;;;;;;21.97;14.50;;;;;;;;;;5035679;28;20025;-59
2021/05/01 10:49:14;;;;;;;21.93;15.57;;;;;;;;;;5035542;28;20152;-59
2021/05/01 10:51:46;;;;;;;20.90;15.17;;;;;;;;;;5035440;28;20041;-60
2021/05/01 10:54:14;;;;;;;25.57;15.30;;;;;;;;;;5017787;28;20037;-59
2021/05/01 10:56:45;;;;;;;20.90;16.13;;;;;;;;;;5035919;28;20026;-58
2021/05/01 10:59:21;;;;;;;25.43;14.07;;;;;;;;;;5035417;28;20018;-59
2021/05/01 11:01:49;;;;;;;21.27;13.83;;;;;;;;;;5035485;28;20030;-59
2021/05/01 11:04:20;;;;;;;16.77;12.73;;;;;;;;;;5035272;28;20029;-60
2021/05/01 11:06:48;;;;;;;18.67;12.60;;;;;;;;;;5035297;28;20035;-59
2021/05/01 11:09:47;;;;;;;17.77;12.53;;;;;;;;;;5035336;28;20395;-60
2021/05/01 11:12:15;;;;;;;18.93;13.03;;;;;;;;;;4981318;28;20661;-59
2021/05/01 11:14:52;;;;;;;19.73;14.37;;;;;;;;;;5035119;28;20018;-60
2021/05/01 11:17:25;;;;;;;22.10;14.00;;;;;;;;;;5035217;28;20026;-59
2021/05/01 11:19:52;;;;;;;18.27;13.17;;;;;;;;;;5034971;28;20084;-60
2021/05/01 11:22:34;;;;;;;17.63;12.53;;;;;;;;;;5034975;28;20025;-59
2021/05/01 11:25:05;;;;;;;18.60;13.47;;;;;;;;;;5034601;28;20035;-59
2021/05/01 11:27:32;;;;;;;18.67;13.33;;;;;;;;;;5035020;28;20441;-59
2021/05/01 11:29:59;;;;;;;18.43;12.87;;;;;;;;;;5034930;28;20030;-59
2021/05/01 11:32:27;;;;;;;18.87;13.30;;;;;;;;;;5034771;28;20459;-59
2021/05/01 11:35:04;;;;;;;25.17;14.47;;;;;;;;;;5017017;28;20465;-59
2021/05/01 11:37:36;;;;;;;21.03;14.60;;;;;;;;;;5034749;28;20044;-59
2021/05/01 11:40:07;;;;;;;19.23;14.20;;;;;;;;;;5034927;28;20029;-59
2021/05/01 11:42:34;;;;;;;20.40;14.47;;;;;;;;;;5034568;28;20091;-59
2021/05/01 11:45:00;;;;;;;20.13;14.13;;;;;;;;;;5035299;28;20053;-59
2021/05/01 11:47:29;;;;;;;21.03;14.17;;;;;;;;;;5034603;28;20014;-59
2021/05/01 11:49:56;;;;;;;19.77;14.33;;;;;;;;;;5034648;28;20029;-60
2021/05/01 11:52:42;;;;;;;19.97;13.67;;;;;;;;;;5034365;28;20439;-59
2021/05/01 11:55:14;;;;;;;18.73;13.38;;;;;;;;;;5034599;28;20025;-59
2021/05/01 11:57:46;;;;;;;19.80;13.40;;;;;;;;;;5034440;28;20045;-59
2021/05/01 12:00:14;;;;;;;20.77;14.03;;;;;;;;;;5034366;28;20026;-59
2021/05/01 12:02:42;;;;;;;20.77;14.23;;;;;;;;;;5034173;28;20030;-59
2021/05/01 12:05:13;;;;;;;22.00;14.67;;;;;;;;;;5034226;28;20059;-59
2021/05/01 12:07:57;;;;;;;19.17;14.07;;;;;;;;;;5034102;28;20499;-59
2021/05/01 12:10:25;;;;;;;22.48;14.35;;;;;;;;;;5034171;28;20021;-59
2021/05/01 12:13:04;;;;;;;28.60;17.40;;;;;;;;;;5034180;28;20030;-60
2021/05/01 12:15:32;;;;;;;32.70;20.80;;;;;;;;;;5034182;28;20507;-62
2021/05/01 12:17:59;;;;;;;41.97;19.07;;;;;;;;;;5033911;28;20017;-64
2021/05/01 12:20:29;;;;;;;24.37;16.70;;;;;;;;;;5034229;28;20029;-64
2021/05/01 12:23:01;;;;;;;27.27;19.17;;;;;;;;;;5033920;28;20062;-63
2021/05/01 12:25:31;;;;;;;25.53;18.00;;;;;;;;;;5033908;28;20028;-63
2021/05/01 12:27:58;;;;;;;26.57;18.30;;;;;;;;;;5033844;28;20053;-62
2021/05/01 12:30:41;;;;;;;28.60;18.33;;;;;;;;;;5015970;28;20033;-62
2021/05/01 12:33:26;;;;;;;27.40;19.20;;;;;;;;;;5034074;28;20030;-62
2021/05/01 12:35:54;;;;;;;37.10;23.30;;;;;;;;;;5033129;28;20053;-62
2021/05/01 12:38:23;;;;;;;27.40;19.53;;;;;;;;;;5033655;28;20052;-62
2021/05/01 12:40:50;;;;;;;23.33;17.57;;;;;;;;;;5033497;28;20113;-62
2021/05/01 12:43:31;;;;;;;25.33;17.13;;;;;;;;;;5033534;28;20058;-62
2021/05/01 12:46:01;;;;;;;22.77;17.90;;;;;;;;;;5013821;28;20054;-62
2021/05/01 12:48:50;;;;;;;26.17;18.03;;;;;;;;;;4996111;28;20022;-62
2021/05/01 12:51:21;;;;;;;26.87;18.63;;;;;;;;;;5013884;28;20068;-62
2021/05/01 12:53:49;;;;;;;25.47;18.93;;;;;;;;;;5013474;28;20102;-62
2021/05/01 12:56:16;;;;;;;24.73;16.80;;;;;;;;;;5013601;28;20021;-62
2021/05/01 12:58:43;;;;;;;22.57;17.53;;;;;;;;;;5013594;28;20105;-61
2021/05/01 13:01:27;;;;;;;23.93;17.97;;;;;;;;;;5013414;28;20088;-62
2021/05/01 13:04:23;;;;;;;29.23;17.83;;;;;;;;;;5013491;28;20041;-62
2021/05/01 13:06:55;;;;;;;21.37;16.97;;;;;;;;;;5000929;28;20038;-62
2021/05/01 13:09:23;;;;;;;24.80;17.37;;;;;;;;;;5013427;28;20018;-61
2021/05/01 13:12:08;;;;;;;19.27;15.17;;;;;;;;;;5013289;28;20030;-61
2021/05/01 13:14:36;;;;;;;18.52;14.93;;;;;;;;;;5013433;28;20472;-62
2021/05/01 13:17:04;;;;;;;21.30;15.97;;;;;;;;;;5013405;28;20026;-60
2021/05/01 13:19:32;;;;;;;23.90;15.83;;;;;;;;;;5013258;28;20018;-60
2021/05/01 13:22:03;;;;;;;21.53;16.23;;;;;;;;;;5013097;28;20042;-61
2021/05/01 13:24:33;;;;;;;19.63;15.57;;;;;;;;;;5013201;28;20018;-61
2021/05/01 13:27:01;;;;;;;21.43;16.40;;;;;;;;;;5013187;28;20096;-61
2021/05/01 13:29:30;;;;;;;23.43;17.23;;;;;;;;;;5013085;28;20469;-61
2021/05/01 13:31:57;;;;;;;21.57;15.87;;;;;;;;;;5013164;28;20358;-60
2021/05/01 13:34:24;;;;;;;23.13;17.37;;;;;;;;;;5013007;28;20033;-60
2021/05/01 13:36:51;;;;;;;23.93;17.37;;;;;;;;;;5013033;28;20037;-59
2021/05/01 13:39:19;;;;;;;21.00;16.90;;;;;;;;;;5013108;28;20066;-61
2021/05/01 13:42:04;;;;;;;26.63;18.60;;;;;;;;;;5012838;28;20393;-60
2021/05/01 13:44:30;;;;;;;;;;;;;;;;;;5023638;28;20061;-61
2021/05/01 13:46:57;;;;;;;23.10;16.53;;;;;;;;;;5033106;28;19940;-61
2021/05/01 13:49:24;;;;;;;20.77;17.10;;;;;;;;;;5018933;28;20064;-61
2021/05/01 13:51:53;;;;;;;22.27;16.40;;;;;;;;;;5018837;28;20037;-60
2021/05/01 13:54:19;;;;;;;30.30;21.10;;;;;;;;;;5036544;28;20025;-60
2021/05/01 13:56:46;;;;;;;38.07;26.77;;;;;;;;;;5036692;28;20104;-60
2021/05/01 13:59:26;;;;;;;35.43;24.90;;;;;;;;;;5036687;28;20017;-59
2021/05/01 14:01:53;;;;;;;43.47;24.33;;;;;;;;;;5036422;28;20480;-61
2021/05/01 14:04:30;;;;;;;30.33;22.37;;;;;;;;;;5036205;28;20024;-61
2021/05/01 14:06:57;;;;;;;30.67;21.70;;;;;;;;;;5036497;28;20026;-61
2021/05/01 14:09:25;;;;;;;29.77;21.00;;;;;;;;;;5036436;28;20045;-61
2021/05/01 14:11:52;;;;;;;28.13;20.47;;;;;;;;;;5036314;28;20029;-61
2021/05/01 14:14:23;;;;;;;28.70;21.77;;;;;;;;;;5036307;28;20022;-60
2021/05/01 14:17:04;;;;;;;27.17;19.20;;;;;;;;;;5036171;28;20476;-61
2021/05/01 14:19:31;;;;;;;30.87;20.93;;;;;;;;;;5036152;28;20022;-61
2021/05/01 14:21:58;;;;;;;27.73;20.47;;;;;;;;;;5036241;28;20194;-59
2021/05/01 14:24:25;;;;;;;28.50;22.40;;;;;;;;;;5035993;28;20496;-60
2021/05/01 14:26:56;;;;;;;32.80;23.63;;;;;;;;;;5036177;28;20057;-61
2021/05/01 14:29:25;;;;;;;31.47;23.80;;;;;;;;;;5036139;28;20368;-61
2021/05/01 14:32:14;;;;;;;30.47;22.53;;;;;;;;;;5035790;28;20048;-61
2021/05/01 14:34:41;;;;;;;37.10;25.33;;;;;;;;;;5035926;28;20430;-61
2021/05/01 14:37:08;;;;;;;33.13;23.80;;;;;;;;;;5036198;28;20056;-61
2021/05/01 14:39:36;;;;;;;30.67;22.37;;;;;;;;;;5035562;28;20033;-61
2021/05/01 14:42:11;;;;;;;32.73;22.93;;;;;;;;;;5035731;28;20028;-62
2021/05/01 14:44:37;;;;;;;;;;;;;;;;;;5036923;28;20049;-62